Tiempo atmosférico en la estación meteorológica de Almazul, Soria (1000 m.)



Fecha
DESCASC
Temp. máxima en grados centígrados (hora)
DESCASC
Temp. mínima en grados centígrados (hora)
DESCASC
Temp. media en grados centígrados
DESCASC
Racha de viento máxima en m/sg (hora)
DESCASC
Velocidad máxima media en intervalos de 10 minutos(hora)
DESCASC
Precipitaciones diarias en mm
DESCASC
Precipitaciones de 00:00 a 06:00 en mm
DESCASC
Precipitaciones de 06:00 a 12:00 en mm
DESCASC
Precipitaciones de 12:00 a 18:00 en mm
DESCASC
Precipitaciones de 18:00 a 24:00 en mm
DESCASC
16-06-2019 27.3 (16:20) 6.5 (07:00) 16.9 9.44 (20:30) 6.94 (00:10) 0 0 0 0 0
15-06-2019 22.8 (18:40) 7.3 (06:40) 15 10.83 (21:30) 8.06 (20:50) 0 0 0 0 0
14-06-2019 24 (16:20) 11 (06:20) 17.5 15.28 (16:30) 10.28 (16:40) 0 0 0 0 0
13-06-2019 -- (--) -- (--) -- -- (--) -- (--) -- 0 0 -- 0
12-06-2019 21.4 (18:30) 1.8 (00:00) 11.6 10 (17:20) 6.67 (17:20) 0 0 0 0 0
11-06-2019 13.8 (18:10) 4.7 (00:00) 9.3 11.94 (13:20) 8.06 (17:20) 1.8 0 0 1.8 0
10-06-2019 20.2 (17:40) 7 (00:00) 13.6 13.89 (18:10) 8.61 (21:40) 0 0 0 0 0
09-06-2019 25 (16:50) 10.7 (00:00) 17.8 13.33 (22:20) 9.72 (22:10) 0 0 0 0 0
08-06-2019 21.6 (15:30) 3.9 (00:00) 12.8 12.78 (21:00) 9.17 (21:10) 0 0 0 0 0
07-06-2019 16.6 (17:30) 6.1 (00:00) 11.4 14.72 (08:00) 9.72 (08:30) 0.8 0.8 0 0 0
06-06-2019 20.5 (18:50) 6.4 (00:00) 13.5 19.44 (15:20) 13.33 (19:50) 0 0 0 0 0
05-06-2019 14.6 (16:50) 6 (00:00) 10.3 14.72 (11:50) 9.17 (11:50) 18.8 3.8 12 3 0
04-06-2019 26.8 (15:50) 12.8 (00:00) 19.8 18.61 (13:20) 11.67 (12:20) 0 0 0 0 0
03-06-2019 30.1 (16:40) 13.4 (00:00) 21.8 13.33 (17:00) 9.17 (15:10) 0 0 0 0 0
02-06-2019 30.9 (15:30) 11.4 (00:00) 21.1 15.56 (23:40) 9.72 (23:40) 0.8 0 0 0 0.8
01-06-2019 30.1 (18:10) 8.3 (00:00) 19.2 10 (20:20) 7.5 (20:10) 0 0 0 0 0
31-05-2019 28 (16:10) 8.2 (00:00) 18.1 8.61 (20:00) 6.39 (20:00) 0 0 0 0 0
30-05-2019 24.3 (17:30) 5.9 (00:00) 15.1 11.94 (14:50) 8.06 (14:50) 0 0 0 0 0
29-05-2019 16.7 (17:10) 5.1 (00:00) 10.9 15.56 (15:50) 11.94 (20:30) 0 0 0 0 0
28-05-2019 14.9 (16:20) 4.8 (00:00) 9.8 16.11 (18:30) 12.22 (00:10) 0 0 0 0 0
27-05-2019 20.1 (15:50) 6.2 (00:00) 13.2 14.17 (23:59) 10.56 (23:59) 0 0 0 0 0
26-05-2019 16.7 (16:40) 5.3 (00:00) 11 15 (19:20) 11.11 (12:50) 0 0 0 0 0
25-05-2019 15.1 (15:20) 8 (00:00) 11.6 18.89 (11:10) 15.28 (11:20) 0 0 0 0 0
24-05-2019 14 (15:50) 8.5 (00:00) 11.3 15 (17:40) 11.11 (23:50) 2.8 1 1.8 0 0
23-05-2019 24.6 (15:30) 8.4 (00:00) 16.5 9.44 (23:00) 6.11 (20:10) 2.8 0 0 0 2.8
22-05-2019 24.5 (17:10) 4.7 (00:00) 14.6 8.89 (16:30) 4.72 (16:30) 0 0 0 0 0
21-05-2019 19.4 (16:00) 3.9 (07:00) 11.6 9.44 (20:10) 7.22 (00:20) 0 0 0 0 0

Gráficas

Temp. máximas Temp. mínimas Temp. medias Precipitaciones Rachas de viento máximas Velocidades máximas media en intervalos de 10 minutos

Datos horarios

Fecha y hora oficial Temperatura (ºC) Velocidad del viento (km/h) Dirección del viento Racha (km/h) Dirección de racha Precipitación (mm) Presión (hPa) Tendencia (hPa) Humedad (%)
2019-06-19 23:00:00 17.4 6 Norte 12 Norte 0 -- -- 64
2019-06-19 22:00:00 18.2 10 Norte 36 Norte 0 -- -- 62
2019-06-19 21:00:00 21.7 18 Norte 26 Noroeste 0 -- -- 46
2019-06-19 20:00:00 23.4 20 Oeste 28 Sudoeste 0 -- -- 37
2019-06-19 19:00:00 23.8 21 Oeste 38 Oeste 0 -- -- 36
2019-06-19 18:00:00 26.2 21 Oeste 44 Oeste 0 -- -- 32
2019-06-19 17:00:00 26.2 10 Oeste 32 Oeste 0 -- -- 34
2019-06-19 16:00:00 24.6 13 Noroeste 29 Noroeste 0 -- -- 39
2019-06-19 15:00:00 22.7 -- -- -- -- -- -- -- 43
2019-06-19 14:00:00 -- -- -- -- -- -- -- -- --
2019-06-19 13:00:00 -- -- -- -- -- -- -- -- --
2019-06-19 12:00:00 -- -- -- -- -- -- -- -- --
2019-06-19 11:00:00 -- -- -- -- -- -- -- -- --
2019-06-19 10:00:00 -- -- -- -- -- -- -- -- --
2019-06-19 09:00:00 -- -- -- -- -- -- -- -- --
2019-06-19 08:00:00 -- -- -- -- -- -- -- -- --
2019-06-19 07:00:00 -- -- -- -- -- -- -- -- --
2019-06-19 06:00:00 -- -- -- -- -- -- -- -- --
2019-06-19 05:00:00 -- -- -- -- -- -- -- -- --
2019-06-19 04:00:00 -- -- -- -- -- -- -- -- --
2019-06-19 03:00:00 -- -- -- -- -- -- -- -- --
2019-06-19 02:00:00 -- -- -- -- -- -- -- -- --
2019-06-19 01:00:00 -- -- -- -- -- -- -- -- --
2019-06-19 00:00:00 -- -- -- -- -- -- -- -- --
2019-06-18 23:00:00 -- -- -- -- -- -- -- -- --
2019-06-18 22:00:00 -- -- -- -- -- -- -- -- --
2019-06-18 21:00:00 -- -- -- -- -- -- -- -- --
2019-06-18 20:00:00 -- -- -- -- -- -- -- -- --
2019-06-18 19:00:00 27.3 33 Oeste 47 Oeste 0 -- -- 22
2019-06-18 18:00:00 28.1 30 Oeste 51 Oeste 0 -- -- 20
2019-06-18 17:00:00 28.3 32 Oeste 60 Oeste 0 -- -- 20
2019-06-18 16:00:00 28 37 Sudoeste 67 Sudoeste 0 -- -- 19
2019-06-18 15:00:00 27.3 40 Oeste 69 Sudoeste 0 -- -- 21
2019-06-18 14:00:00 26.4 41 Oeste 60 Sudoeste 0 -- -- 24
2019-06-18 13:00:00 25.6 36 Oeste 55 Sudoeste 0 -- -- 26
2019-06-18 12:00:00 24.3 25 Oeste 42 Noroeste 0 -- -- 28
2019-06-18 11:00:00 24.3 30 Oeste 43 Oeste 0 -- -- 26
2019-06-18 10:00:00 22.5 22 Sudoeste 36 Sudoeste 0 -- -- 35
2019-06-18 09:00:00 21.4 18 Sudoeste 25 Sudoeste 0 -- -- 37
2019-06-18 08:00:00 17.6 5 Sudoeste 12 Sur 0 -- -- 44
2019-06-18 07:00:00 15.2 12 Sur 22 Sudoeste 0 -- -- 47
2019-06-18 06:00:00 16.3 12 Sudeste 17 Nordeste 0 -- -- 43
2019-06-18 05:00:00 15.8 4 Nordeste 9 Norte 0 -- -- 52
2019-06-18 04:00:00 16.7 2 Sur 12 Sur 0 -- -- 41
2019-06-18 03:00:00 17.9 3 Norte 8 Norte 0 -- -- 37
2019-06-18 02:00:00 19.6 2 Sudoeste 12 Norte 0 -- -- 31
2019-06-18 01:00:00 18.7 4 Sudeste 10 Sudeste 0 -- -- 32
2019-06-18 00:00:00 21.1 3 Oeste 7 Noroeste 0 -- -- 28
2019-06-17 23:00:00 21.4 0 Calma 8 Oeste 0 -- -- 28
2019-06-17 22:00:00 23.1 6 Noroeste 15 Oeste 0 -- -- 25
2019-06-17 21:00:00 25.1 11 Oeste 27 Oeste 0 -- -- 22
2019-06-17 20:00:00 27.8 14 Oeste 33 Oeste 0 -- -- 19
2019-06-17 19:00:00 28.9 14 Oeste 36 Oeste 0 -- -- 18
2019-06-17 18:00:00 29.1 25 Sudoeste 36 Sudoeste 0 -- -- 19
2019-06-17 17:00:00 29.2 22 Sudoeste 39 Sudoeste 0 -- -- 20
2019-06-17 16:00:00 29 17 Sudoeste 50 Sur 0 -- -- 20
2019-06-17 15:00:00 27.8 19 Sudoeste 36 Sudoeste 0 -- -- 22
2019-06-17 14:00:00 26.8 15 Oeste 32 Sudoeste 0 -- -- 20
2019-06-17 13:00:00 27 13 Sudoeste 28 Sudoeste 0 -- -- 22
2019-06-17 12:00:00 25.6 12 Sur 22 Sur 0 -- -- 25
2019-06-17 11:00:00 25.4 5 Sudoeste 12 Oeste 0 -- -- 30
2019-06-17 10:00:00 23.5 4 Oeste 12 Oeste 0 -- -- 35
2019-06-17 09:00:00 21.7 3 Sur 5 Sur 0 -- -- 35
2019-06-17 08:00:00 17.3 2 Sudeste 8 Sudeste 0 -- -- 50
2019-06-17 07:00:00 10.5 7 Nordeste 10 Noroeste 0 -- -- 65
2019-06-17 06:00:00 10.1 0 Calma 9 Nordeste 0 -- -- 68
2019-06-17 05:00:00 13.7 0 Calma 10 Noroeste 0 -- -- 56
2019-06-17 04:00:00 16.2 5 Oeste 14 Sudoeste 0 -- -- 48
2019-06-17 03:00:00 15 4 Sudoeste 15 Sur 0 -- -- 52
2019-06-17 02:00:00 16.2 9 Sur 12 Sur 0 -- -- 48
2019-06-17 01:00:00 18 4 Sur 21 Sur 0 -- -- 44
2019-06-17 00:00:00 18.9 6 Sur 26 Sudeste 0 -- -- 41
2019-06-16 23:00:00 19.7 19 Sudeste 32 Sudeste 0 -- -- 38
2019-06-16 22:00:00 20.3 19 Sudeste 31 Sudeste 0 -- -- 38
2019-06-16 21:00:00 22.1 23 Sudeste 34 Sudeste 0 -- -- 36
2019-06-16 20:00:00 25.9 10 Oeste 28 Sudoeste 0 -- -- 24
2019-06-16 19:00:00 26.5 17 Oeste 32 Oeste 0 -- -- 24
2019-06-16 18:00:00 26.3 16 Oeste 33 Oeste 0 -- -- 22
2019-06-16 17:00:00 26.5 17 Sudoeste 28 Sudoeste 0 -- -- 21
2019-06-16 16:00:00 26.9 13 Sudoeste 31 Sudoeste 0 -- -- 23
2019-06-16 15:00:00 24.9 12 Oeste 28 Sudoeste 0 -- -- 27
2019-06-16 14:00:00 23.8 12 Oeste 33 Sudoeste 0 -- -- 26
2019-06-16 13:00:00 23.1 14 Sudoeste 25 Sudoeste 0 -- -- 28
2019-06-16 12:00:00 21.4 10 Sur 25 Sudoeste 0 -- -- 34
2019-06-16 11:00:00 19.5 17 Sudoeste 27 Sur 0 -- -- 39
2019-06-16 10:00:00 18.4 9 Sur 15 Sur 0 -- -- 43
2019-06-16 09:00:00 16.1 4 Este 9 Norte 0 -- -- 53
2019-06-16 08:00:00 10.6 3 Norte 10 Nordeste 0 -- -- 69
2019-06-16 07:00:00 6.5 0 Calma 11 Este 0 -- -- 82
2019-06-16 06:00:00 7 6 Nordeste 8 Nordeste 0 -- -- 79
2019-06-16 05:00:00 6.9 3 Nordeste 12 Norte 0 -- -- 81
2019-06-16 04:00:00 7.9 8 Nordeste 13 Norte 0 -- -- 75
2019-06-16 03:00:00 8.4 10 Norte 12 Norte 0 -- -- 73
2019-06-16 02:00:00 8.5 6 Nordeste 11 Nordeste 0 -- -- 74
2019-06-16 01:00:00 10.1 7 Nordeste 31 Nordeste 0 -- -- 68
2019-06-16 00:00:00 12.2 26 Nordeste 38 Nordeste 0 -- -- 61
2019-06-15 23:00:00 12.7 18 Nordeste 31 Nordeste 0 -- -- 61
2019-06-15 22:00:00 14 25 Nordeste 39 Nordeste 0 -- -- 58
2019-06-15 21:00:00 17.5 25 Nordeste 35 Nordeste 0 -- -- 48
2019-06-15 20:00:00 21.5 16 Norte 27 Noroeste 0 -- -- 25
2019-06-15 19:00:00 22 12 Noroeste 28 Norte 0 -- -- 24
2019-06-15 18:00:00 22.1 8 Norte 31 Oeste 0 -- -- 27
2019-06-15 17:00:00 21.9 10 Norte 30 Norte 0 -- -- 28
2019-06-15 16:00:00 20.6 18 Norte 31 Noroeste 0 -- -- 32
2019-06-15 15:00:00 20.8 9 Sudoeste 29 Norte 0 -- -- 36
2019-06-15 14:00:00 19 13 Noroeste 31 Oeste 0 -- -- 36
2019-06-15 13:00:00 17.5 13 Norte 28 Noroeste 0 -- -- 41
2019-06-15 12:00:00 16 15 Norte 30 Norte 0 -- -- 43
2019-06-15 11:00:00 15 17 Noroeste 30 Norte 0 -- -- 50
2019-06-15 10:00:00 13.2 15 Norte 25 Noroeste 0 -- -- 58
2019-06-15 09:00:00 11.6 17 Norte 28 Norte 0 -- -- 62
2019-06-15 08:00:00 10.5 14 Norte 26 Norte 0 -- -- 63
2019-06-15 07:00:00 7.5 11 Norte 25 Norte 0 -- -- 69
2019-06-15 06:00:00 8.6 19 Norte 33 Noroeste 0 -- -- 62
2019-06-15 05:00:00 9.7 23 Noroeste 33 Noroeste 0 -- -- 57
2019-06-15 04:00:00 10.8 24 Noroeste 34 Noroeste 0 -- -- 52
2019-06-15 03:00:00 12 21 Noroeste 29 Noroeste 0 -- -- 49
2019-06-15 02:00:00 12.5 16 Noroeste 31 Noroeste 0 -- -- 48
2019-06-15 01:00:00 14.4 21 Noroeste 35 Oeste 0 -- -- 42
2019-06-15 00:00:00 15.1 22 Oeste 33 Oeste 0 -- -- 36
2019-06-14 23:00:00 16.6 21 Oeste 31 Oeste 0 -- -- 32
2019-06-14 22:00:00 17.8 22 Sudoeste 39 Oeste 0 -- -- 30
2019-06-14 21:00:00 20.2 28 Oeste 48 Oeste 0 -- -- 25
2019-06-14 20:00:00 21.7 34 Oeste 49 Oeste 0 -- -- 23
2019-06-14 19:00:00 22.8 31 Oeste 49 Oeste 0 -- -- 21
2019-06-14 18:00:00 22.8 30 Oeste 52 Oeste 0 -- -- 21
2019-06-14 17:00:00 23.3 35 Oeste 55 Oeste 0 -- -- 22
2019-06-14 16:00:00 23.5 30 Oeste 52 Oeste 0 -- -- 24
2019-06-14 15:00:00 23.3 27 Oeste 50 Oeste 0 -- -- 27
2019-06-14 14:00:00 22.2 28 Oeste 44 Oeste 0 -- -- 31
2019-06-14 13:00:00 21.4 14 Sudoeste 28 Oeste 0 -- -- 36
2019-06-14 12:00:00 20.7 14 Sudoeste 25 Sudoeste 0 -- -- 47
2019-06-14 11:00:00 16.3 15 Sur 22 Sur 0 -- -- 61
2019-06-14 10:00:00 14.9 13 Sur 17 Sur 0 -- -- 68
2019-06-14 09:00:00 14 0 Calma 8 Nordeste 0 -- -- 66
2019-06-14 08:00:00 11.3 6 Nordeste 13 Norte 0 -- -- 71
2019-06-14 07:00:00 11.4 4 Nordeste 10 Este 0 -- -- 73
2019-06-14 06:00:00 11.2 6 Nordeste 18 Nordeste 0 -- -- 67
2019-06-14 05:00:00 11.4 15 Nordeste 24 Nordeste 0 -- -- 66
2019-06-14 04:00:00 12.8 13 Nordeste 20 Este 0 -- -- 71
2019-06-14 03:00:00 14.3 10 Nordeste 14 Este 0 -- -- 76
2019-06-14 02:00:00 15.7 10 Sudeste 27 Sudeste 0 -- -- 70
2019-06-14 01:00:00 15.7 21 Sudeste 32 Sudeste 0 -- -- 71
2019-06-14 00:00:00 16.3 26 Sudeste 33 Sudeste 0 -- -- 69
2019-06-13 23:00:00 16.4 23 Sudeste 37 Sudeste 0 -- -- 68
2019-06-13 22:00:00 17.8 23 Sudeste 36 Sudeste 0 -- -- 62
2019-06-13 21:00:00 21.9 17 Sudoeste 32 Sudoeste 0 -- -- 39
2019-06-13 20:00:00 22.4 18 Sudoeste 36 Sudoeste 0 -- -- 38
2019-06-13 19:00:00 24.3 23 Sudoeste 39 Oeste 0 -- -- 33
2019-06-13 18:00:00 23.3 25 Sudoeste 41 Sudoeste 0 -- -- 36
2019-06-13 17:00:00 23.8 25 Sudoeste 49 Oeste 0 -- -- 33
2019-06-13 16:00:00 23.3 23 Oeste -- -- -- -- -- 36
2019-06-13 15:00:00 -- -- -- -- -- -- -- -- --
2019-06-13 14:00:00 -- -- -- -- -- -- -- -- --
2019-06-13 13:00:00 -- -- -- -- -- -- -- -- --
2019-06-13 12:00:00 19.6 24 Sudoeste 40 Sudoeste 0 -- -- 48
2019-06-13 11:00:00 17.3 26 Sudoeste 36 Sudoeste 0 -- -- 56
2019-06-13 10:00:00 15.5 21 Sudoeste 31 Sur 0 -- -- 62
2019-06-13 09:00:00 14 14 Sur 19 Sur 0 -- -- 65
2019-06-13 08:00:00 11.2 2 Sudeste 8 Sur 0 -- -- 72
2019-06-13 07:00:00 8 8 Sur 13 Sur 0 -- -- 80
2019-06-13 06:00:00 8.5 8 Sur 21 Sur 0 -- -- 77
2019-06-13 05:00:00 9.1 12 Sudeste 15 Sudeste 0 -- -- 75
2019-06-13 04:00:00 9.7 8 Sudeste 13 Sur 0 -- -- 72
2019-06-13 03:00:00 10.6 6 Sur 32 Sudeste 0 -- -- 66
2019-06-13 02:00:00 11.7 21 Sur 37 Sudeste 0 -- -- 59
2019-06-13 01:00:00 11.7 23 Sudeste 35 Sudeste 0 -- -- 54
2019-06-13 00:00:00 12.2 21 Sudeste 32 Sudeste 0 -- -- 49
2019-06-12 23:00:00 12.8 17 Sudeste 29 Sudeste 0 -- -- 48
2019-06-12 22:00:00 14.9 17 Sudeste 31 Sudeste 0 -- -- 44
2019-06-12 21:00:00 17.8 11 Norte 24 Noroeste 0 -- -- 29
2019-06-12 20:00:00 20.8 12 Sudoeste 23 Sudoeste 0 -- -- 26
2019-06-12 19:00:00 19 17 Sudoeste 30 Sudoeste 0 -- -- 27
2019-06-12 18:00:00 19.5 12 Noroeste 36 Oeste 0 -- -- 26
2019-06-12 17:00:00 19.2 22 Oeste 36 Oeste 0 -- -- 27
2019-06-12 16:00:00 17.9 11 Sudoeste 34 Sudoeste 0 -- -- 32
2019-06-12 15:00:00 17.1 17 Sudoeste 35 Oeste 0 -- -- 36
2019-06-12 14:00:00 15.1 12 Noroeste 33 Noroeste 0 -- -- 43
2019-06-12 13:00:00 14.3 18 Oeste 30 Oeste 0 -- -- 42
2019-06-12 12:00:00 13 10 Sudoeste 26 Sudoeste 0 -- -- 56
2019-06-12 11:00:00 12.5 12 Sudoeste 27 Sudoeste 0 -- -- 59
2019-06-12 10:00:00 10.7 11 Sur 18 Sur 0 -- -- 65
2019-06-12 09:00:00 10.3 3 Sudoeste 8 Norte 0 -- -- 71
2019-06-12 08:00:00 4.5 7 Norte 10 Nordeste 0 -- -- 88
2019-06-12 07:00:00 1.8 7 Nordeste 10 Nordeste 0 -- -- 92
2019-06-12 06:00:00 2.8 0 Calma 4 Sudeste 0 -- -- 92
2019-06-12 05:00:00 2.4 3 Sudeste 7 Sur 0 -- -- 88
2019-06-12 04:00:00 2.4 2 Este 4 Sudeste 0 -- -- 92
2019-06-12 03:00:00 2.9 3 Sudoeste 10 Sur 0 -- -- 91
2019-06-12 02:00:00 2.8 6 Nordeste 9 Nordeste 0 -- -- 90
2019-06-12 01:00:00 4 6 Norte 14 Nordeste 0 -- -- 86
2019-06-12 00:00:00 5.8 14 Nordeste 22 Nordeste 0 -- -- 77
2019-06-11 23:00:00 6.3 14 Nordeste 21 Nordeste 0 -- -- 75
2019-06-11 22:00:00 7.9 16 Nordeste 30 Nordeste 0 -- -- 67
2019-06-11 21:00:00 11.2 23 Nordeste 34 Nordeste 0 -- -- 52
2019-06-11 20:00:00 13.4 22 Nordeste 33 Norte 0 -- -- 42
2019-06-11 19:00:00 13.4 28 Nordeste 38 Nordeste 0 -- -- 44
2019-06-11 18:00:00 12.6 23 Nordeste 39 Nordeste 0 -- -- 47
2019-06-11 17:00:00 12.7 23 Nordeste 41 Nordeste 0 -- -- 46
2019-06-11 16:00:00 13 20 Nordeste 37 Nordeste 0 -- -- 46
2019-06-11 15:00:00 11.6 11 Nordeste 38 Norte 0 -- -- 58
2019-06-11 14:00:00 9.1 6 Sudeste 43 Norte 1.8 -- -- 77
2019-06-11 13:00:00 11.2 14 Nordeste 35 Nordeste 0 -- -- 61
2019-06-11 12:00:00 9.9 15 Nordeste 26 Nordeste 0 -- -- 69
2019-06-11 11:00:00 7.9 18 Nordeste 28 Nordeste 0 -- -- 78
2019-06-11 10:00:00 6.7 15 Nordeste 30 Nordeste 0 -- -- 85
2019-06-11 09:00:00 5.9 19 Nordeste 33 Norte 0 -- -- 87
2019-06-11 08:00:00 6.4 19 Nordeste 32 Nordeste 0 -- -- 81
2019-06-11 07:00:00 6.5 22 Nordeste 36 Nordeste 0 -- -- 81
2019-06-11 06:00:00 6.9 24 Nordeste 34 Nordeste 0 -- -- 79
2019-06-11 05:00:00 7 19 Nordeste 32 Nordeste 0 -- -- 78
2019-06-11 04:00:00 7 25 Nordeste 32 Nordeste 0 -- -- 78
2019-06-11 03:00:00 7.3 21 Nordeste 28 Nordeste 0 -- -- 79
2019-06-11 02:00:00 8.1 18 Nordeste 26 Nordeste 0 -- -- 74
2019-06-11 01:00:00 9.1 11 Este 24 Nordeste 0 -- -- 69
2019-06-11 00:00:00 9.8 10 Nordeste 20 Este 0 -- -- 67
2019-06-10 23:00:00 9.8 15 Este 34 Nordeste 0 -- -- 68
2019-06-10 22:00:00 10.4 28 Nordeste 43 Nordeste 0 -- -- 65
2019-06-10 21:00:00 12.4 26 Nordeste 42 Este 0 -- -- 58
2019-06-10 20:00:00 15.9 28 Nordeste 39 Este 0 -- -- 51
2019-06-10 19:00:00 17 23 Este 50 Norte 0 -- -- 49
2019-06-10 18:00:00 19.6 20 Norte 37 Norte 0 -- -- 32
2019-06-10 17:00:00 19.7 22 Noroeste 38 Norte 0 -- -- 24
2019-06-10 16:00:00 20 21 Noroeste 37 Noroeste 0 -- -- 27
2019-06-10 15:00:00 19.2 22 Noroeste 37 Norte 0 -- -- 29
2019-06-10 14:00:00 17.8 6 Nordeste 27 Este 0 -- -- 50
2019-06-10 13:00:00 16.4 15 Norte 43 Norte 0 -- -- 55
2019-06-10 12:00:00 15.8 12 Norte 21 Norte 0 -- -- 55
2019-06-10 11:00:00 14.7 9 Nordeste 21 Norte 0 -- -- 61
2019-06-10 10:00:00 12.9 13 Nordeste 22 Nordeste 0 -- -- 67
2019-06-10 09:00:00 12 7 Nordeste 14 Nordeste 0 -- -- 72
2019-06-10 08:00:00 9.5 9 Nordeste 13 Nordeste 0 -- -- 85
2019-06-10 07:00:00 7.4 9 Nordeste 19 Nordeste 0 -- -- 92
2019-06-10 06:00:00 7.1 8 Nordeste 12 Nordeste 0 -- -- 94
2019-06-10 05:00:00 7.6 7 Nordeste 17 Nordeste 0 -- -- 93
2019-06-10 04:00:00 8.3 10 Nordeste 30 Nordeste 0 -- -- 92
2019-06-10 03:00:00 9.1 22 Nordeste 41 Este 0 -- -- 89
2019-06-10 02:00:00 9.7 28 Este 37 Este 0 -- -- 87
2019-06-10 01:00:00 10.2 24 Este 45 Este 0 -- -- 87
2019-06-10 00:00:00 11 31 Nordeste 48 Nordeste 0 -- -- 84
2019-06-09 23:00:00 11.8 35 Este 48 Este 0 -- -- 82
2019-06-09 22:00:00 13.4 31 Este 43 Este 0 -- -- 76
2019-06-09 21:00:00 16 28 Nordeste 37 Nordeste 0 -- -- 67
2019-06-09 20:00:00 19.9 21 Nordeste 29 Nordeste 0 -- -- 48
2019-06-09 19:00:00 23.6 16 Norte 30 Norte 0 -- -- 28
2019-06-09 18:00:00 22.9 14 Norte 24 Noroeste 0 -- -- 28
2019-06-09 17:00:00 24 18 Oeste 31 Sudoeste 0 -- -- 26
2019-06-09 16:00:00 24.5 14 Oeste 39 Oeste 0 -- -- 27
2019-06-09 15:00:00 23.5 15 Oeste 45 Oeste 0 -- -- 26
2019-06-09 14:00:00 23 22 Oeste 32 Sudoeste 0 -- -- 29
2019-06-09 13:00:00 21.5 18 Oeste 34 Oeste 0 -- -- 31
2019-06-09 12:00:00 21.1 9 Noroeste 24 Oeste 0 -- -- 41
2019-06-09 11:00:00 19.2 12 Noroeste 21 Oeste 0 -- -- 52
2019-06-09 10:00:00 18.2 13 Oeste 29 Oeste 0 -- -- 53
2019-06-09 09:00:00 17.7 5 Sur 9 Sur 0 -- -- 54
2019-06-09 08:00:00 12.8 3 Este 9 Nordeste 0 -- -- 77
2019-06-09 07:00:00 11.3 2 Este 7 Norte 0 -- -- 78
2019-06-09 06:00:00 12.5 2 Este 7 Nordeste 0 -- -- 71
2019-06-09 05:00:00 12.8 5 Sur 8 Norte 0 -- -- 72
2019-06-09 04:00:00 13 2 Sudeste 10 Sur 0 -- -- 66
2019-06-09 03:00:00 13 6 Sudeste 16 Sudeste 0 -- -- 66
2019-06-09 02:00:00 14 10 Sudeste 18 Sur 0 -- -- 61
2019-06-09 01:00:00 14.8 12 Sur 37 Sudeste 0 -- -- 58
2019-06-09 00:00:00 15.6 27 Sudeste 39 Sudeste 0 -- -- 55
2019-06-08 23:00:00 16 27 Sudeste 45 Sudeste 0 -- -- 54
2019-06-08 22:00:00 17.3 31 Sudeste 46 Sudeste 0 -- -- 50
2019-06-08 21:00:00 19.3 30 Sudeste 46 Sudeste 0 -- -- 47
2019-06-08 20:00:00 19.5 29 Sudeste 41 Sudeste 0 -- -- 47
2019-06-08 19:00:00 20.2 24 Sudeste 38 Sudeste 0 -- -- 45
2019-06-08 18:00:00 20.8 28 Sudeste 41 Sudeste 0 -- -- 42
2019-06-08 17:00:00 20.8 22 Sudeste 35 Sudeste 0 -- -- 42
2019-06-08 16:00:00 21.1 20 Sudeste 32 Sudeste 0 -- -- 40
2019-06-08 15:00:00 20.8 16 Sudeste 30 Sudeste 0 -- -- 38
2019-06-08 14:00:00 20.3 12 Sudeste 27 Sudeste 0 -- -- 34
2019-06-08 13:00:00 18.8 18 Sur 32 Sudeste 0 -- -- 36
2019-06-08 12:00:00 17.1 21 Sur 39 Sur 0 -- -- 41
2019-06-08 11:00:00 15.1 29 Sur 39 Sur 0 -- -- 42
2019-06-08 10:00:00 15.3 11 Sur 21 Sudeste 0 -- -- 48
2019-06-08 09:00:00 13.6 3 Oeste 10 Norte 0 -- -- 59
2019-06-08 08:00:00 7.4 7 Nordeste 11 Norte 0 -- -- 84
2019-06-08 07:00:00 4 8 Nordeste 12 Nordeste 0 -- -- 92
2019-06-08 06:00:00 4.2 9 Nordeste 12 Nordeste 0 -- -- 90
2019-06-08 05:00:00 4.4 8 Norte 11 Norte 0 -- -- 90
2019-06-08 04:00:00 4.7 8 Nordeste 10 Nordeste 0 -- -- 87
2019-06-08 03:00:00 5.4 10 Nordeste 12 Nordeste 0 -- -- 89
2019-06-08 02:00:00 6.1 5 Este 14 Nordeste 0 -- -- 87
2019-06-08 01:00:00 7.2 3 Noroeste 21 Nordeste 0 -- -- 80
2019-06-08 00:00:00 7.3 11 Nordeste 16 Nordeste 0 -- -- 78
2019-06-07 23:00:00 8.8 10 Nordeste 15 Nordeste 0 -- -- 64
2019-06-07 22:00:00 10.8 9 Norte 20 Norte 0 -- -- 50
2019-06-07 21:00:00 14.6 13 Norte 27 Norte 0 -- -- 39
2019-06-07 20:00:00 16.2 14 Norte 31 Norte 0 -- -- 34
2019-06-07 19:00:00 16.5 16 Norte 32 Noroeste 0 -- -- 34
2019-06-07 18:00:00 16.6 18 Noroeste 32 Norte 0 -- -- 34
2019-06-07 17:00:00 15.6 19 Noroeste 35 Noroeste 0 -- -- 37
2019-06-07 16:00:00 15.1 18 Oeste 37 Norte 0 -- -- 40
2019-06-07 15:00:00 14.2 17 Noroeste 36 Noroeste 0 -- -- 43
2019-06-07 14:00:00 12.8 19 Noroeste 37 Noroeste 0 -- -- 47
2019-06-07 13:00:00 12.3 21 Noroeste 41 Norte 0 -- -- 51
2019-06-07 12:00:00 11.1 26 Noroeste 41 Norte 0 -- -- 52
2019-06-07 11:00:00 9 23 Noroeste 48 Noroeste 0 -- -- 65
2019-06-07 10:00:00 9 31 Noroeste 50 Noroeste 0 -- -- 67
2019-06-07 09:00:00 8 35 Noroeste 53 Noroeste 0 -- -- 72
2019-06-07 08:00:00 6.9 35 Noroeste 53 Noroeste 0 -- -- 79
2019-06-07 07:00:00 6.1 16 Noroeste 38 Noroeste 0 -- -- 88
2019-06-07 06:00:00 6.4 23 Noroeste 41 Norte 0.8 -- -- 88
2019-06-07 05:00:00 7.2 19 Norte 35 Noroeste 0 -- -- 88
2019-06-07 04:00:00 9.2 26 Noroeste 40 Noroeste 0 -- -- 84
2019-06-07 03:00:00 12.8 21 Sudoeste 30 Sudoeste 0 -- -- 48
2019-06-07 02:00:00 12.6 20 Sudoeste 34 Sudoeste 0 -- -- 47
2019-06-07 01:00:00 12.6 22 Sur 28 Sudoeste 0 -- -- 46
2019-06-07 00:00:00 13.7 12 Sur 22 Sudoeste 0 -- -- 44
2019-06-06 23:00:00 15.4 17 Sudoeste 29 Oeste 0 -- -- 40
2019-06-06 22:00:00 16.7 13 Sudoeste 43 Sudoeste 0 -- -- 35
2019-06-06 21:00:00 18.9 32 Sudoeste 64 Sudoeste 0 -- -- 32
2019-06-06 20:00:00 19.8 46 Sudoeste 68 Sudoeste 0 -- -- 30
2019-06-06 19:00:00 20.1 46 Sudoeste 67 Sudoeste 0 -- -- 31
2019-06-06 18:00:00 20.2 40 Sudoeste 67 Sudoeste 0 -- -- 32
2019-06-06 17:00:00 19.8 44 Oeste 68 Sudoeste 0 -- -- 30
2019-06-06 16:00:00 19.8 45 Sudoeste 70 Sudoeste 0 -- -- 30
2019-06-06 15:00:00 18.7 40 Sudoeste 58 Sudoeste 0 -- -- 33
2019-06-06 14:00:00 17.5 36 Sudoeste 56 Sudoeste 0 -- -- 36
2019-06-06 13:00:00 16.1 28 Sudoeste 42 Sudoeste 0 -- -- 48
2019-06-06 12:00:00 15.4 26 Sudoeste 44 Sur 0 -- -- 48
2019-06-06 11:00:00 13.7 13 Sur 19 Sur 0 -- -- 56
2019-06-06 10:00:00 13 5 Sur 11 Sur 0 -- -- 65
2019-06-06 09:00:00 10.9 7 Sur 12 Sur 0 -- -- 74
2019-06-06 08:00:00 9.9 0 Calma 4 Sur 0 -- -- 85
2019-06-06 07:00:00 6.4 2 Sudoeste 6 Sur 0 -- -- 96
2019-06-06 06:00:00 6.6 3 Sudoeste 5 Sur 0 -- -- 96
2019-06-06 05:00:00 6.8 3 Sudeste 5 Sudeste 0 -- -- 95
2019-06-06 04:00:00 6.4 3 Nordeste 5 Sudeste 0 -- -- 95
2019-06-06 03:00:00 6.6 0 Calma 6 Sudeste 0 -- -- 93
2019-06-06 02:00:00 6.7 4 Nordeste 12 Este 0 -- -- 92
2019-06-06 01:00:00 7.1 9 Este 14 Nordeste 0 -- -- 89
2019-06-06 00:00:00 8.3 11 Nordeste 20 Este 0 -- -- 86
2019-06-05 23:00:00 8.4 10 Este 22 Nordeste 0 -- -- 85
2019-06-05 22:00:00 9.2 13 Nordeste 17 Este 0 -- -- 81
2019-06-05 21:00:00 10.8 11 Este 22 Nordeste 0 -- -- 70
2019-06-05 20:00:00 11.8 13 Nordeste 30 Nordeste 0 -- -- 67
2019-06-05 19:00:00 12.5 18 Nordeste 31 Nordeste 0 -- -- 69
2019-06-05 18:00:00 13.1 20 Noroeste 35 Noroeste 0 -- -- 55
2019-06-05 17:00:00 13.8 16 Norte 34 Norte 0 -- -- 54
2019-06-05 16:00:00 13.4 16 Norte 29 Norte 0 -- -- 65
2019-06-05 15:00:00 9.2 19 Noroeste 29 Noroeste 0.4 -- -- 83
2019-06-05 14:00:00 9.7 8 Noroeste 25 Nordeste 0.8 -- -- 80
2019-06-05 13:00:00 7.6 22 Nordeste 45 Norte 1.8 -- -- 83
2019-06-05 12:00:00 6.8 30 Norte 53 Noroeste 10.4 -- -- 89
2019-06-05 11:00:00 9.6 14 Nordeste 35 Norte 0 -- -- 82
2019-06-05 10:00:00 10 26 Noroeste 39 Noroeste 0 -- -- 87
2019-06-05 09:00:00 9.9 17 Noroeste 40 Noroeste 0 -- -- 90
2019-06-05 08:00:00 9.7 25 Noroeste 38 Norte 0.6 -- -- 92
2019-06-05 07:00:00 10.9 14 Noroeste 27 Noroeste 1 -- -- 95
2019-06-05 06:00:00 10.6 12 Norte 15 Norte 0 -- -- 96
2019-06-05 05:00:00 10.4 11 Nordeste 23 Este 2.4 -- -- 96
2019-06-05 04:00:00 10.6 13 Nordeste 22 Norte 1 -- -- 93
2019-06-05 03:00:00 11.1 12 Nordeste 35 Nordeste 0.4 -- -- 91
2019-06-05 02:00:00 11.8 14 Este 28 Nordeste 0 -- -- 84
2019-06-05 01:00:00 11.5 22 Nordeste 30 Nordeste 0 -- -- 89
2019-06-05 00:00:00 12.8 15 Nordeste 31 Este 0 -- -- 82
2019-06-04 23:00:00 14.3 23 Nordeste 32 Nordeste 0 -- -- 74
2019-06-04 22:00:00 19.3 14 Norte 26 Noroeste 0 -- -- 45
2019-06-04 21:00:00 22.3 18 Noroeste 45 Noroeste 0 -- -- 35
2019-06-04 20:00:00 24.6 33 Noroeste 55 Noroeste 0 -- -- 31
2019-06-04 19:00:00 26.1 33 Oeste 48 Oeste 0 -- -- 30
2019-06-04 18:00:00 25.9 28 Oeste 52 Oeste 0 -- -- 31
2019-06-04 17:00:00 26.1 33 Oeste 54 Oeste 0 -- -- 33
2019-06-04 16:00:00 26.3 39 Oeste 55 Oeste 0 -- -- 31
2019-06-04 15:00:00 25.9 34 Oeste 53 Oeste 0 -- -- 31
2019-06-04 14:00:00 25.3 37 Oeste 67 Oeste 0 -- -- 32
2019-06-04 13:00:00 25 41 Oeste 66 Oeste 0 -- -- 29
2019-06-04 12:00:00 24.7 29 Oeste 58 Oeste 0 -- -- 33
2019-06-04 11:00:00 23.4 35 Oeste 45 Norte 0 -- -- 35
2019-06-04 10:00:00 22 21 Sudoeste 33 Sudoeste 0 -- -- 39
2019-06-04 09:00:00 18.6 12 Sur 18 Sur 0 -- -- 44
2019-06-04 08:00:00 15.1 4 Sur 12 Sur 0 -- -- 50
2019-06-04 07:00:00 13.6 0 Calma 6 Sudeste 0 -- -- 45
2019-06-04 06:00:00 13.6 4 Sudeste 8 Sudeste 0 -- -- 44
2019-06-04 05:00:00 13.6 2 Sur 8 Sudoeste 0 -- -- 42
2019-06-04 04:00:00 14.9 8 Sur 20 Sur 0 -- -- 37
2019-06-04 03:00:00 14.4 2 Noroeste 6 Norte 0 -- -- 42
2019-06-04 02:00:00 17.7 4 Norte 7 Nordeste 0 -- -- 31
2019-06-04 01:00:00 19.5 2 Nordeste 13 Noroeste 0 -- -- 27
2019-06-04 00:00:00 20.3 12 Noroeste 24 Oeste 0 -- -- 28
2019-06-03 23:00:00 21.5 12 Noroeste 21 Oeste 0 -- -- 26
2019-06-03 22:00:00 22.3 17 Sudoeste 24 Sudoeste 0 -- -- 28
2019-06-03 21:00:00 25.2 17 Sudoeste 38 Oeste 0 -- -- 25
2019-06-03 20:00:00 27.5 27 Oeste 41 Oeste 0 -- -- 22
2019-06-03 19:00:00 28.3 30 Oeste 47 Oeste 0 -- -- 22
2019-06-03 18:00:00 29.1 27 Oeste 40 Oeste 0 -- -- 22
2019-06-03 17:00:00 29.7 27 Oeste 48 Oeste 0 -- -- 23
2019-06-03 16:00:00 29 22 Oeste 45 Sudoeste 0 -- -- 25
2019-06-03 15:00:00 29 22 Oeste 40 Oeste 0 -- -- 23
2019-06-03 14:00:00 27.9 24 Sudoeste 45 Oeste 0 -- -- 28
2019-06-03 13:00:00 26 9 Noroeste 19 Oeste 0 -- -- 35
2019-06-03 12:00:00 24 9 Oeste 17 Oeste 0 -- -- 37
2019-06-03 11:00:00 22.1 7 Oeste 14 Oeste 0 -- -- 41
2019-06-03 10:00:00 21.4 3 Oeste 6 Oeste 0 -- -- 50
2019-06-03 09:00:00 18.3 3 Oeste 8 Sudoeste 0 -- -- 59
2019-06-03 08:00:00 15.7 0 Calma 10 Norte 0 -- -- 80
2019-06-03 07:00:00 13.9 10 Nordeste 13 Norte 0 -- -- 81
2019-06-03 06:00:00 14 6 Nordeste 14 Norte 0 -- -- 81
2019-06-03 05:00:00 13.8 12 Nordeste 15 Norte 0 -- -- 81
2019-06-03 04:00:00 15.8 4 Sudeste 9 Sur 0 -- -- 64
2019-06-03 03:00:00 16.9 4 Sur 5 Sur 0 -- -- 61
2019-06-03 02:00:00 16.6 0 Calma 9 Sudeste 0 -- -- 64
2019-06-03 01:00:00 18.9 4 Sudeste 31 Sudeste 0 -- -- 54
2019-06-03 00:00:00 21.2 16 Sudeste 56 Oeste 0.4 -- -- 46
2019-06-02 23:00:00 20.2 21 Sur 40 Nordeste 0 -- -- 54
2019-06-02 22:00:00 19.1 33 Nordeste 44 Nordeste 0.4 -- -- 64
2019-06-02 21:00:00 25.7 10 Este 28 Nordeste 0 -- -- 33
2019-06-02 20:00:00 27.8 9 Sudoeste 19 Oeste 0 -- -- 29
2019-06-02 19:00:00 28.8 13 Noroeste 24 Noroeste 0 -- -- 26
2019-06-02 18:00:00 28.8 8 Noroeste 22 Oeste 0 -- -- 24
2019-06-02 17:00:00 28.8 10 Noroeste 25 Noroeste 0 -- -- 23
2019-06-02 16:00:00 29.7 9 Noroeste 28 Noroeste 0 -- -- 23
2019-06-02 15:00:00 30 12 Oeste 23 Noroeste 0 -- -- 24
2019-06-02 14:00:00 28.4 12 Oeste 23 Oeste 0 -- -- 27
2019-06-02 13:00:00 26.8 9 Noroeste 26 Oeste 0 -- -- 30
2019-06-02 12:00:00 26.5 10 Oeste 22 Oeste 0 -- -- 30
2019-06-02 11:00:00 24.2 11 Sudoeste 22 Sudoeste 0 -- -- 36
2019-06-02 10:00:00 22.2 9 Sudoeste 19 Sudoeste 0 -- -- 39
2019-06-02 09:00:00 20.9 6 Sur 10 Sur 0 -- -- 44
2019-06-02 08:00:00 16 0 Calma 4 Este 0 -- -- 57
2019-06-02 07:00:00 11.8 0 Calma 4 Norte 0 -- -- 67
2019-06-02 06:00:00 13.5 0 Calma 4 Sudeste 0 -- -- 60
2019-06-02 05:00:00 14.7 0 Calma 6 Sudeste 0 -- -- 55
2019-06-02 04:00:00 16.5 4 Sudeste 8 Sudeste 0 -- -- 48
2019-06-02 03:00:00 15.7 5 Sudeste 16 Sudeste 0 -- -- 51
2019-06-02 02:00:00 17.3 9 Sudeste 14 Este 0 -- -- 44
2019-06-02 01:00:00 18.5 10 Sudeste 15 Sudeste 0 -- -- 38
2019-06-02 00:00:00 17.7 3 Nordeste 12 Nordeste 0 -- -- 43
2019-06-01 23:00:00 17.7 9 Nordeste 22 Este 0 -- -- 44
2019-06-01 22:00:00 20.5 17 Este 33 Sudeste 0 -- -- 39
2019-06-01 21:00:00 24.7 24 Sudeste 36 Sudeste 0 -- -- 31
2019-06-01 20:00:00 26.7 24 Sudeste 36 Sudeste 0 -- -- 30
2019-06-01 19:00:00 29.5 9 Este 19 Norte 0 -- -- 23
2019-06-01 18:00:00 29.5 7 Nordeste 19 Sudeste 0 -- -- 23
2019-06-01 17:00:00 28.8 13 Nordeste 26 Sudeste 0 -- -- 25
2019-06-01 16:00:00 29.5 8 Sudoeste 33 Sur 0 -- -- 23
2019-06-01 15:00:00 27.8 11 Sudeste 24 Sudoeste 0 -- -- 25
2019-06-01 14:00:00 26.5 9 Sur 22 Sur 0 -- -- 29
2019-06-01 13:00:00 25.2 12 Sudoeste 19 Sudoeste 0 -- -- 32
2019-06-01 12:00:00 24.1 10 Sur 21 Sudeste 0 -- -- 39
2019-06-01 11:00:00 22.5 9 Sur 18 Sur 0 -- -- 40
2019-06-01 10:00:00 21.3 12 Sur 17 Sudoeste 0 -- -- 42
2019-06-01 09:00:00 19.7 0 Calma 5 Norte 0 -- -- 47
2019-06-01 08:00:00 12.3 2 Norte 9 Norte 0 -- -- 67
2019-06-01 07:00:00 8.9 6 Norte 8 Norte 0 -- -- 71
2019-06-01 06:00:00 8.9 0 Calma 9 Nordeste 0 -- -- 72
2019-06-01 05:00:00 10.3 3 Nordeste 12 Norte 0 -- -- 66
2019-06-01 04:00:00 9.9 3 Norte 12 Norte 0 -- -- 70
2019-06-01 03:00:00 11.7 6 Norte 9 Norte 0 -- -- 63
2019-06-01 02:00:00 11.8 3 Norte 10 Este 0 -- -- 64
2019-06-01 01:00:00 13.7 6 Nordeste 13 Este 0 -- -- 57
2019-06-01 00:00:00 16.3 3 Este 12 Este 0 -- -- 48
2019-05-31 23:00:00 16.1 10 Este 21 Este 0 -- -- 50
2019-05-31 22:00:00 18.7 14 Este 22 Sudeste 0 -- -- 44
2019-05-31 21:00:00 22.6 17 Sudeste 30 Sudeste 0 -- -- 38
2019-05-31 20:00:00 25 23 Sudeste 31 Sudeste 0 -- -- 38
2019-05-31 19:00:00 26.5 18 Este 27 Sudeste 0 -- -- 34
2019-05-31 18:00:00 27.8 14 Nordeste 24 Nordeste 0 -- -- 25
2019-05-31 17:00:00 27.5 9 Nordeste 23 Nordeste 0 -- -- 24
2019-05-31 16:00:00 27.9 10 Sudeste 24 Sudeste 0 -- -- 24
2019-05-31 15:00:00 26.5 8 Nordeste 19 Norte 0 -- -- 27
2019-05-31 14:00:00 25.5 5 Sur 15 Sudoeste 0 -- -- 29
2019-05-31 13:00:00 24.6 8 Sur 15 Sur 0 -- -- 28
2019-05-31 12:00:00 23.5 8 Sudoeste 16 Sudoeste 0 -- -- 33
2019-05-31 11:00:00 22.4 4 Este 21 Nordeste 0 -- -- 40
2019-05-31 10:00:00 18.9 13 Norte 20 Nordeste 0 -- -- 49
2019-05-31 09:00:00 15.9 12 Norte 15 Norte 0 -- -- 60
2019-05-31 08:00:00 13.1 11 Norte 14 Norte 0 -- -- 68
2019-05-31 07:00:00 8.4 6 Norte 13 Norte 0 -- -- 78
2019-05-31 06:00:00 8.8 9 Nordeste 13 Nordeste 0 -- -- 77
2019-05-31 05:00:00 9.8 9 Norte 13 Nordeste 0 -- -- 74
2019-05-31 04:00:00 10.4 3 Nordeste 18 Nordeste 0 -- -- 71
2019-05-31 03:00:00 11.5 14 Norte 22 Nordeste 0 -- -- 70
2019-05-31 02:00:00 13 19 Nordeste 24 Norte 0 -- -- 66
2019-05-31 01:00:00 14.1 18 Norte 21 Norte 0 -- -- 65
2019-05-31 00:00:00 14.9 18 Nordeste 28 Nordeste 0 -- -- 61
2019-05-30 23:00:00 15.1 19 Nordeste 26 Nordeste 0 -- -- 55
2019-05-30 22:00:00 16.3 10 Nordeste 19 Nordeste 0 -- -- 47
2019-05-30 21:00:00 20.7 16 Nordeste 33 Nordeste 0 -- -- 35
2019-05-30 20:00:00 22.8 26 Nordeste 37 Nordeste 0 -- -- 26
2019-05-30 19:00:00 23.4 25 Nordeste 39 Nordeste 0 -- -- 28
2019-05-30 18:00:00 24 24 Nordeste 36 Nordeste 0 -- -- 26
2019-05-30 17:00:00 24 24 Nordeste 41 Este 0 -- -- 27
2019-05-30 16:00:00 23.3 24 Nordeste 39 Nordeste 0 -- -- 27
2019-05-30 15:00:00 22.9 28 Nordeste 43 Nordeste 0 -- -- 29
2019-05-30 14:00:00 21.8 24 Nordeste 37 Norte 0 -- -- 34
2019-05-30 13:00:00 20.9 26 Nordeste 37 Nordeste 0 -- -- 38
2019-05-30 12:00:00 19.3 25 Nordeste 36 Nordeste 0 -- -- 41
2019-05-30 11:00:00 18 19 Nordeste 37 Nordeste 0 -- -- 48
2019-05-30 10:00:00 16.2 21 Nordeste 30 Nordeste 0 -- -- 53
2019-05-30 09:00:00 14.1 9 Norte 21 Noroeste 0 -- -- 60
2019-05-30 08:00:00 11 16 Norte 24 Norte 0 -- -- 69
2019-05-30 07:00:00 7.5 3 Noroeste 24 Norte 0 -- -- 78
2019-05-30 06:00:00 7.1 21 Norte 25 Norte 0 -- -- 79
2019-05-30 05:00:00 7.1 6 Norte 10 Norte 0 -- -- 79
2019-05-30 04:00:00 6.7 5 Nordeste 11 Oeste 0 -- -- 81
2019-05-30 03:00:00 9.2 9 Norte 30 Norte 0 -- -- 73
2019-05-30 02:00:00 9.4 13 Noroeste 19 Noroeste 0 -- -- 75
2019-05-30 01:00:00 8.9 14 Norte 19 Norte 0 -- -- 80
2019-05-30 00:00:00 9.8 12 Norte 29 Nordeste 0 -- -- 77
2019-05-29 23:00:00 10.3 21 Nordeste 45 Nordeste 0 -- -- 74
2019-05-29 22:00:00 11.9 33 Norte 53 Norte 0 -- -- 65
2019-05-29 21:00:00 13.7 37 Nordeste 53 Nordeste 0 -- -- 57
2019-05-29 20:00:00 15.3 35 Nordeste 49 Nordeste 0 -- -- 53
2019-05-29 19:00:00 16.1 37 Nordeste 51 Nordeste 0 -- -- 52
2019-05-29 18:00:00 16.2 36 Norte 49 Norte 0 -- -- 51
2019-05-29 17:00:00 16.2 32 Norte 50 Nordeste 0 -- -- 49
2019-05-29 16:00:00 15.9 39 Norte 56 Norte 0 -- -- 52
2019-05-29 15:00:00 14.9 28 Norte 49 Norte 0 -- -- 55
2019-05-29 14:00:00 14 31 Norte 53 Nordeste 0 -- -- 58
2019-05-29 13:00:00 13 32 Nordeste 44 Norte 0 -- -- 60
2019-05-29 12:00:00 11.2 29 Nordeste 46 Nordeste 0 -- -- 66
2019-05-29 11:00:00 10.4 36 Norte 53 Norte 0 -- -- 67
2019-05-29 10:00:00 10.2 32 Norte 49 Norte 0 -- -- 68
2019-05-29 09:00:00 9 24 Norte 37 Norte 0 -- -- 74
2019-05-29 08:00:00 7.8 15 Norte 22 Norte 0 -- -- 76
2019-05-29 07:00:00 5.1 10 Norte 28 Norte 0 -- -- 86
2019-05-29 06:00:00 7.3 17 Norte 28 Norte 0 -- -- 74
2019-05-29 05:00:00 7 21 Norte 41 Norte 0 -- -- 73
2019-05-29 04:00:00 6.9 17 Norte 27 Norte 0 -- -- 74
2019-05-29 03:00:00 6.1 9 Norte 31 Norte 0 -- -- 72
2019-05-29 02:00:00 6.7 25 Norte 42 Norte 0 -- -- 69
2019-05-29 01:00:00 7.4 33 Norte 41 Norte 0 -- -- 68
2019-05-29 00:00:00 7.8 9 Norte 27 Nordeste 0 -- -- 71
2019-05-28 23:00:00 8.2 21 Nordeste 36 Nordeste 0 -- -- 70
2019-05-28 22:00:00 9 20 Nordeste 45 Norte 0 -- -- 66
2019-05-28 21:00:00 10.8 36 Norte 54 Norte 0 -- -- 55
2019-05-28 20:00:00 12.4 37 Norte 54 Norte 0 -- -- 53
2019-05-28 19:00:00 13 40 Norte 58 Nordeste 0 -- -- 52
2019-05-28 18:00:00 14.3 39 Norte 56 Nordeste 0 -- -- 46
2019-05-28 17:00:00 14.7 39 Norte 56 Nordeste 0 -- -- 48
2019-05-28 16:00:00 14.4 37 Nordeste 55 Norte 0 -- -- 50
2019-05-28 15:00:00 14.1 37 Norte 49 Norte 0 -- -- 50
2019-05-28 14:00:00 14.4 29 Nordeste 41 Nordeste 0 -- -- 50
2019-05-28 13:00:00 14 24 Norte 44 Norte 0 -- -- 53
2019-05-28 12:00:00 12 31 Nordeste 53 Norte 0 -- -- 53
2019-05-28 11:00:00 11 35 Norte 50 Norte 0 -- -- 56
2019-05-28 10:00:00 10.3 33 Norte 50 Norte 0 -- -- 57
2019-05-28 09:00:00 8.7 29 Norte 40 Nordeste 0 -- -- 65
2019-05-28 08:00:00 6.5 22 Nordeste 36 Nordeste 0 -- -- 75
2019-05-28 07:00:00 5.5 29 Nordeste 41 Nordeste 0 -- -- 78
2019-05-28 06:00:00 5.2 24 Norte 33 Norte 0 -- -- 82
2019-05-28 05:00:00 5.6 18 Nordeste 37 Nordeste 0 -- -- 81
2019-05-28 04:00:00 6.3 23 Nordeste 31 Nordeste 0 -- -- 81
2019-05-28 03:00:00 6.3 14 Nordeste 29 Norte 0 -- -- 84
2019-05-28 02:00:00 7.5 25 Nordeste 52 Nordeste 0 -- -- 83
2019-05-28 01:00:00 8.3 33 Nordeste 57 Nordeste 0 -- -- 84
2019-05-28 00:00:00 9.6 38 Nordeste 51 Nordeste 0 -- -- 82
2019-05-27 23:00:00 10.3 32 Nordeste 48 Nordeste 0 -- -- 80
2019-05-27 22:00:00 11.6 29 Nordeste 45 Nordeste 0 -- -- 80
2019-05-27 21:00:00 14.3 32 Nordeste 46 Nordeste 0 -- -- 69
2019-05-27 20:00:00 15 29 Nordeste 46 Nordeste 0 -- -- 64
2019-05-27 19:00:00 16.3 30 Nordeste 48 Nordeste 0 -- -- 59
2019-05-27 18:00:00 17 32 Nordeste 50 Nordeste 0 -- -- 57
2019-05-27 17:00:00 18 32 Nordeste 47 Nordeste 0 -- -- 53
2019-05-27 16:00:00 19.7 27 Nordeste 42 Nordeste 0 -- -- 48
2019-05-27 15:00:00 19.8 26 Nordeste 38 Nordeste 0 -- -- 52
2019-05-27 14:00:00 19.7 20 Norte 39 Norte 0 -- -- 52
2019-05-27 13:00:00 18.7 18 Nordeste 31 Nordeste 0 -- -- 55
2019-05-27 12:00:00 17.9 14 Nordeste 26 Nordeste 0 -- -- 54
2019-05-27 11:00:00 16.9 9 Nordeste 23 Norte 0 -- -- 54
2019-05-27 10:00:00 15.6 12 Norte 20 Norte 0 -- -- 57
2019-05-27 09:00:00 13 9 Norte 15 Oeste 0 -- -- 67
2019-05-27 08:00:00 9.3 10 Norte 16 Noroeste 0 -- -- 84
2019-05-27 07:00:00 6.2 9 Norte 17 Nordeste 0 -- -- 90
2019-05-27 06:00:00 6.7 12 Nordeste 17 Nordeste 0 -- -- 89
2019-05-27 05:00:00 6.4 13 Norte 17 Nordeste 0 -- -- 93
2019-05-27 04:00:00 7.2 11 Norte 15 Norte 0 -- -- 89
2019-05-27 03:00:00 7.1 13 Norte 27 Noroeste 0 -- -- 92
2019-05-27 02:00:00 7.8 9 Norte 23 Norte 0 -- -- 89
2019-05-27 01:00:00 8.6 23 Nordeste 32 Nordeste 0 -- -- 90
2019-05-27 00:00:00 9.1 12 Norte 23 Norte 0 -- -- 87
2019-05-26 23:00:00 9.5 13 Nordeste 37 Norte 0 -- -- 84
2019-05-26 22:00:00 10.6 28 Nordeste 42 Norte 0 -- -- 80
2019-05-26 21:00:00 12.4 25 Nordeste 41 Nordeste 0 -- -- 72
2019-05-26 20:00:00 14.5 28 Nordeste 54 Nordeste 0 -- -- 61
2019-05-26 19:00:00 15.6 38 Nordeste 50 Nordeste 0 -- -- 57
2019-05-26 18:00:00 16.6 32 Nordeste 48 Nordeste 0 -- -- 54
2019-05-26 17:00:00 16.3 33 Nordeste 44 Nordeste 0 -- -- 52
2019-05-26 16:00:00 16.1 33 Nordeste 45 Nordeste 0 -- -- 54
2019-05-26 15:00:00 15.5 31 Nordeste 47 Nordeste 0 -- -- 60
2019-05-26 14:00:00 14.8 31 Nordeste 54 Nordeste 0 -- -- 58
2019-05-26 13:00:00 13.3 37 Nordeste 52 Nordeste 0 -- -- 64
2019-05-26 12:00:00 12.6 35 Nordeste 47 Nordeste 0 -- -- 63
2019-05-26 11:00:00 10.7 30 Norte 46 Norte 0 -- -- 68
2019-05-26 10:00:00 10.2 35 Norte 52 Nordeste 0 -- -- 70
2019-05-26 09:00:00 8.6 28 Nordeste 40 Nordeste 0 -- -- 76
2019-05-26 08:00:00 7.9 15 Nordeste 38 Nordeste 0 -- -- 78
2019-05-26 07:00:00 6.5 35 Norte 45 Norte 0 -- -- 81
2019-05-26 06:00:00 5.4 8 Este 28 Norte 0 -- -- 83
2019-05-26 05:00:00 6 25 Norte 41 Nordeste 0 -- -- 83
2019-05-26 04:00:00 6.2 19 Norte 30 Norte 0 -- -- 85
2019-05-26 03:00:00 6.8 17 Norte 40 Nordeste 0 -- -- 85
2019-05-26 02:00:00 7.4 31 Nordeste 38 Nordeste 0 -- -- 84
2019-05-26 01:00:00 8.2 22 Nordeste 33 Norte 0 -- -- 82
2019-05-26 00:00:00 8.8 19 Nordeste 41 Norte 0 -- -- 80
2019-05-25 23:00:00 9.3 26 Norte 44 Nordeste 0 -- -- 80
2019-05-25 22:00:00 9.4 23 Nordeste 40 Norte 0 -- -- 79
2019-05-25 21:00:00 11 31 Nordeste 50 Nordeste 0 -- -- 74
2019-05-25 20:00:00 12.4 34 Nordeste 48 Nordeste 0 -- -- 66
2019-05-25 19:00:00 13.4 34 Nordeste 45 Nordeste 0 -- -- 62
2019-05-25 18:00:00 14.1 33 Norte 53 Nordeste 0 -- -- 59
2019-05-25 17:00:00 14.9 35 Nordeste 52 Nordeste 0 -- -- 59
2019-05-25 16:00:00 14.7 36 Nordeste 51 Nordeste 0 -- -- 58
2019-05-25 15:00:00 14.5 39 Nordeste 55 Nordeste 0 -- -- 59
2019-05-25 14:00:00 13.7 42 Nordeste 59 Nordeste 0 -- -- 62
2019-05-25 13:00:00 12.9 48 Nordeste 61 Nordeste 0 -- -- 65
2019-05-25 12:00:00 12.2 44 Nordeste 68 Norte 0 -- -- 67
2019-05-25 11:00:00 11.3 53 Nordeste 67 Nordeste 0 -- -- 68
2019-05-25 10:00:00 10.3 40 Nordeste 57 Norte 0 -- -- 71
2019-05-25 09:00:00 9.1 38 Norte 52 Norte 0 -- -- 75
2019-05-25 08:00:00 9.8 20 Norte 31 Nordeste 0 -- -- 73
2019-05-25 07:00:00 8.4 14 Norte 36 Norte 0 -- -- 78
2019-05-25 06:00:00 8.4 20 Norte 44 Norte 0 -- -- 77
2019-05-25 05:00:00 8.4 39 Norte 56 Norte 0 -- -- 76
2019-05-25 04:00:00 8.4 27 Norte 45 Norte 0 -- -- 78
2019-05-25 03:00:00 8.8 28 Norte 50 Nordeste 0 -- -- 80
2019-05-25 02:00:00 9 35 Nordeste 55 Norte 0 -- -- 80
2019-05-25 01:00:00 9.3 31 Nordeste 54 Nordeste 0 -- -- 81
2019-05-25 00:00:00 9.2 39 Nordeste 53 Nordeste 0 -- -- 81
2019-05-24 23:00:00 9 26 Norte 43 Nordeste 0 -- -- 80
2019-05-24 22:00:00 9.4 29 Norte 45 Nordeste 0 -- -- 78
2019-05-24 21:00:00 9.9 23 Nordeste 46 Nordeste 0 -- -- 78
2019-05-24 20:00:00 10.7 32 Nordeste 51 Norte 0 -- -- 74
2019-05-24 19:00:00 12.5 34 Nordeste 51 Nordeste 0 -- -- 66
2019-05-24 18:00:00 12.4 40 Nordeste 54 Nordeste 0 -- -- 66
2019-05-24 17:00:00 13.8 34 Nordeste 49 Nordeste 0 -- -- 64
2019-05-24 16:00:00 13.8 37 Nordeste 49 Nordeste 0 -- -- 61
2019-05-24 15:00:00 13.2 39 Nordeste 52 Nordeste 0 -- -- 65
2019-05-24 14:00:00 11.7 33 Nordeste 44 Norte 0 -- -- 75
2019-05-24 13:00:00 10.7 31 Nordeste 45 Nordeste 0 -- -- 79
2019-05-24 12:00:00 11.7 34 Nordeste 46 Nordeste 0 -- -- 77
2019-05-24 11:00:00 10.8 30 Nordeste 42 Nordeste 0 -- -- 83
2019-05-24 10:00:00 9.1 24 Nordeste 41 Nordeste 0.6 -- -- 90
2019-05-24 09:00:00 8.6 28 Nordeste 42 Nordeste 1.2 -- -- 93
2019-05-24 08:00:00 8.9 31 Nordeste 49 Nordeste 0 -- -- 90
2019-05-24 07:00:00 8.9 32 Nordeste 43 Nordeste 0 -- -- 89
2019-05-24 06:00:00 9.1 37 Nordeste 52 Nordeste 0 -- -- 91
2019-05-24 05:00:00 9.6 31 Nordeste 47 Nordeste 0 -- -- 92
2019-05-24 04:00:00 9.8 33 Nordeste 44 Nordeste 0 -- -- 94
2019-05-24 03:00:00 10.5 24 Nordeste 33 Nordeste 0.2 -- -- 91
2019-05-24 02:00:00 11.1 18 Este 40 Nordeste 0.8 -- -- 91
2019-05-24 01:00:00 11.5 28 Norte 38 Norte 0 -- -- 92
2019-05-24 00:00:00 12.3 14 Nordeste 27 Nordeste 0 -- -- 91
2019-05-23 23:00:00 13.4 18 Este 34 Este 0.2 -- -- 81
2019-05-23 22:00:00 13 10 Este 28 Este 0.2 -- -- 86
2019-05-23 21:00:00 13.9 13 Este 30 Norte 2.2 -- -- 86
2019-05-23 20:00:00 15 15 Nordeste 20 Noroeste 0.2 -- -- 78
2019-05-23 19:00:00 19 13 Noroeste 27 Noroeste 0 -- -- 49
2019-05-23 18:00:00 21.6 7 Noroeste 22 Noroeste 0 -- -- 41
2019-05-23 17:00:00 20 14 Sudoeste 27 Oeste 0 -- -- 46
2019-05-23 16:00:00 23.5 12 Noroeste 20 Oeste 0 -- -- 36
2019-05-23 15:00:00 23.7 2 Sudoeste 15 Noroeste 0 -- -- 38
2019-05-23 14:00:00 22.6 11 Sudoeste 21 Sudoeste 0 -- -- 35
2019-05-23 13:00:00 23.2 7 Sur 21 Oeste 0 -- -- 47
2019-05-23 12:00:00 21.5 5 Sudeste 11 Sur 0 -- -- 55
2019-05-23 11:00:00 18.2 6 Sur 12 Sur 0 -- -- 62
2019-05-23 10:00:00 14.8 4 Nordeste 8 Norte 0 -- -- 67
2019-05-23 09:00:00 12 7 Norte 12 Norte 0 -- -- 74
2019-05-23 08:00:00 10.6 6 Norte 9 Norte 0 -- -- 80
2019-05-23 07:00:00 9.3 6 Norte 13 Nordeste 0 -- -- 85
2019-05-23 06:00:00 9.1 5 Nordeste 14 Nordeste 0 -- -- 83
2019-05-23 05:00:00 8.5 8 Norte 13 Norte 0 -- -- 84
2019-05-23 04:00:00 8.5 6 Norte 9 Nordeste 0 -- -- 81
2019-05-23 03:00:00 10.5 3 Norte 4 Norte 0 -- -- 73
2019-05-23 02:00:00 11.8 2 Este 9 Sudeste 0 -- -- 68
2019-05-23 01:00:00 13.7 4 Sudeste 16 Sudeste 0 -- -- 59
2019-05-23 00:00:00 14.2 9 Sudeste 18 Este 0 -- -- 58
2019-05-22 23:00:00 14 10 Este 17 Sudeste 0 -- -- 62
2019-05-22 22:00:00 15.6 13 Este 19 Este 0 -- -- 59
2019-05-22 21:00:00 17.4 15 Este 21 Este 0 -- -- 52
2019-05-22 20:00:00 20.4 15 Sudeste 23 Este 0 -- -- 45
2019-05-22 19:00:00 23.1 8 Nordeste 22 Noroeste 0 -- -- 32
2019-05-22 18:00:00 23.4 15 Noroeste 25 Noroeste 0 -- -- 29
2019-05-22 17:00:00 23.3 13 Oeste 32 Noroeste 0 -- -- 31
2019-05-22 16:00:00 22.9 12 Sudoeste 26 Noroeste 0 -- -- 35
2019-05-22 15:00:00 21.3 11 Noroeste 21 Norte 0 -- -- 40
2019-05-22 14:00:00 19.9 13 Noroeste 23 Noroeste 0 -- -- 40
2019-05-22 13:00:00 19.7 6 Oeste 22 Noroeste 0 -- -- 40
2019-05-22 12:00:00 19.1 4 Sur 12 Sur 0 -- -- 46
2019-05-22 11:00:00 18.4 3 Sudoeste 8 Norte 0 -- -- 47
2019-05-22 10:00:00 16.2 2 Noroeste 10 Norte 0 -- -- 46
2019-05-22 09:00:00 10.6 8 Norte 12 Nordeste 0 -- -- 68
2019-05-22 08:00:00 7.2 6 Norte 12 Norte 0 -- -- 79
2019-05-22 07:00:00 5 9 Norte 12 Norte 0 -- -- 86
2019-05-22 06:00:00 5.4 7 Nordeste 11 Nordeste 0 -- -- 85
2019-05-22 05:00:00 4.7 6 Nordeste 12 Sur 0 -- -- 91
2019-05-22 04:00:00 5.8 2 Sur 11 Norte 0 -- -- 91
2019-05-22 03:00:00 6.2 6 Norte 11 Norte 0 -- -- 88
2019-05-22 02:00:00 7 5 Norte 8 Norte 0 -- -- 83
2019-05-22 01:00:00 7.1 8 Norte 11 Norte 0 -- -- 83
2019-05-22 00:00:00 8.5 8 Norte 18 Nordeste 0 -- -- 77
2019-05-21 23:00:00 10.5 14 Nordeste 29 Nordeste 0 -- -- 67
2019-05-21 22:00:00 11.6 14 Nordeste 27 Nordeste 0 -- -- 63
2019-05-21 21:00:00 14.2 22 Nordeste 34 Nordeste 0 -- -- 54
2019-05-21 20:00:00 17.1 22 Nordeste 30 Nordeste 0 -- -- 44
2019-05-21 19:00:00 17.9 20 Nordeste 28 Nordeste 0 -- -- 39
2019-05-21 18:00:00 18.5 15 Nordeste 29 Nordeste 0 -- -- 38
2019-05-21 17:00:00 19.1 11 Nordeste 31 Nordeste 0 -- -- 41
2019-05-21 16:00:00 19.4 7 Norte 28 Noroeste 0 -- -- 42
2019-05-21 15:00:00 17.3 13 Nordeste 23 Nordeste 0 -- -- 44
2019-05-21 14:00:00 17.8 6 Nordeste 22 Nordeste 0 -- -- 38
2019-05-21 13:00:00 16.3 13 Nordeste 20 Nordeste 0 -- -- 42
2019-05-21 12:00:00 15.9 7 Nordeste 17 Nordeste 0 -- -- 41
2019-05-21 11:00:00 16.4 4 Sudeste 15 Norte 0 -- -- 42
2019-05-21 10:00:00 12.1 12 Norte 15 Norte 0 -- -- 51
2019-05-21 09:00:00 10.5 8 Nordeste 13 Nordeste 0 -- -- 63
2019-05-21 08:00:00 5.9 12 Nordeste 14 Nordeste 0 -- -- 80
2019-05-21 07:00:00 3.9 3 Norte 7 Nordeste 0 -- -- 84
2019-05-21 06:00:00 4.8 5 Nordeste 10 Norte 0 -- -- 81
2019-05-21 05:00:00 5.1 6 Norte 12 Norte 0 -- -- 86
2019-05-21 04:00:00 4.6 6 Norte 12 Norte 0 -- -- 92
2019-05-21 03:00:00 5.9 3 Nordeste 13 Nordeste 0 -- -- 89
2019-05-21 02:00:00 5.7 6 Nordeste 11 Norte 0 -- -- 88
2019-05-21 01:00:00 7.2 6 Nordeste 33 Nordeste 0 -- -- 82
2019-05-21 00:00:00 8.5 27 Nordeste 33 Nordeste 0 -- -- 74